createdAt,value
2018-07-04T00:02:21.270Z,100073.00
2018-07-04T00:05:06.359Z,100076.00
2018-07-04T00:07:51.519Z,100068.00
2018-07-04T00:10:36.694Z,100069.00
2018-07-04T00:13:21.751Z,100069.00
2018-07-04T00:16:07.027Z,100075.00
2018-07-04T00:18:52.270Z,100077.00
2018-07-04T00:21:37.451Z,100067.00
2018-07-04T00:24:22.571Z,100063.00
2018-07-04T00:27:07.624Z,100068.00
2018-07-04T00:29:52.707Z,100069.00
2018-07-04T00:32:37.963Z,100064.00
2018-07-04T00:35:23.167Z,100073.00
2018-07-04T00:38:08.198Z,100077.00
2018-07-04T00:40:53.307Z,100066.00
2018-07-04T00:43:32.467Z,100073.00
2018-07-04T00:46:17.644Z,100079.00
2018-07-04T00:49:02.738Z,100070.00
2018-07-04T00:51:47.808Z,100070.00
2018-07-04T00:54:32.896Z,100065.00
2018-07-04T00:57:18.094Z,100074.00
2018-07-04T01:00:03.268Z,100066.00
2018-07-04T01:02:48.434Z,100070.00
2018-07-04T01:05:33.503Z,100064.00
2018-07-04T01:08:18.719Z,100058.00
2018-07-04T01:11:03.795Z,100057.00
2018-07-04T01:13:49.006Z,100063.00
2018-07-04T01:16:33.957Z,100063.00
2018-07-04T01:19:18.967Z,100063.00
2018-07-04T01:22:04.038Z,100063.00
2018-07-04T01:24:49.180Z,100054.00
2018-07-04T01:27:34.250Z,100063.00
2018-07-04T01:30:19.297Z,100058.00
2018-07-04T01:33:04.331Z,100055.00
2018-07-04T01:35:49.459Z,100055.00
2018-07-04T01:38:34.515Z,100065.00
2018-07-04T01:41:19.644Z,100073.00
2018-07-04T01:44:04.847Z,100062.00
2018-07-04T01:46:50.058Z,100064.00
2018-07-04T01:49:35.250Z,100061.00
2018-07-04T01:52:20.422Z,100060.00
2018-07-04T01:55:05.468Z,100062.00
2018-07-04T01:57:50.415Z,100067.00
2018-07-04T02:00:35.455Z,100061.00
2018-07-04T02:03:20.596Z,100057.00
2018-07-04T02:06:05.671Z,100061.00
2018-07-04T02:08:44.938Z,100056.00
2018-07-04T02:11:30.021Z,100057.00
2018-07-04T02:14:15.039Z,100045.00
2018-07-04T02:17:00.231Z,100048.00
2018-07-04T02:19:45.189Z,100044.00
2018-07-04T02:22:30.184Z,100045.00
2018-07-04T02:25:15.151Z,100040.00
2018-07-04T02:28:00.243Z,100041.00
2018-07-04T02:30:45.283Z,100038.00
2018-07-04T02:33:30.443Z,100039.00
2018-07-04T02:36:15.627Z,100042.00
2018-07-04T02:39:00.743Z,100042.00
2018-07-04T02:41:45.926Z,100054.00
2018-07-04T02:44:31.007Z,100053.00
2018-07-04T02:47:22.148Z,100043.00
2018-07-04T02:50:08.420Z,100053.00
2018-07-04T02:52:53.504Z,100054.00
2018-07-04T02:55:38.576Z,100044.00
2018-07-04T02:58:23.989Z,100056.00
2018-07-04T03:01:09.031Z,100048.00
2018-07-04T03:03:48.238Z,100051.00
2018-07-04T03:06:33.411Z,100040.00
2018-07-04T03:09:18.482Z,100043.00
2018-07-04T03:12:03.783Z,100047.00
2018-07-04T03:14:48.871Z,100049.00
2018-07-04T03:17:34.224Z,100046.00
2018-07-04T03:20:19.455Z,100048.00
2018-07-04T03:23:04.687Z,100044.00
2018-07-04T03:25:49.666Z,100033.00
2018-07-04T03:28:34.721Z,100036.00
2018-07-04T03:31:19.747Z,100033.00
2018-07-04T03:34:04.850Z,100045.00
2018-07-04T03:36:50.008Z,100045.00
2018-07-04T03:39:35.143Z,100051.00
2018-07-04T03:42:20.279Z,100054.00
2018-07-04T03:45:05.427Z,100044.00
2018-07-04T03:47:50.539Z,100042.00
2018-07-04T03:50:35.591Z,100051.00
2018-07-04T03:53:20.766Z,100049.00
2018-07-04T03:56:05.831Z,100050.00
2018-07-04T03:58:51.002Z,100038.00
2018-07-04T04:01:36.220Z,100042.00
2018-07-04T04:04:21.437Z,100038.00
2018-07-04T04:07:06.634Z,100033.00
2018-07-04T04:09:51.699Z,100046.00
2018-07-04T04:12:36.683Z,100055.00
2018-07-04T04:15:21.944Z,100045.00
2018-07-04T04:18:07.110Z,100047.00
2018-07-04T04:20:52.207Z,100057.00
2018-07-04T04:23:37.278Z,100062.00
2018-07-04T04:26:22.410Z,100070.00
2018-07-04T04:29:07.691Z,100056.00
2018-07-04T04:31:52.898Z,100053.00
2018-07-04T04:34:38.042Z,100062.00
2018-07-04T04:37:23.222Z,100062.00
2018-07-04T04:40:08.185Z,100062.00
2018-07-04T04:42:47.468Z,100051.00
2018-07-04T04:45:32.499Z,100060.00
2018-07-04T04:48:17.552Z,100053.00
2018-07-04T04:51:03.744Z,100040.00
2018-07-04T04:53:48.752Z,100037.00
2018-07-04T04:56:34.027Z,100034.00
2018-07-04T04:59:19.247Z,100042.00
2018-07-04T05:02:04.350Z,100048.00
2018-07-04T05:04:49.506Z,100048.00
2018-07-04T05:07:34.787Z,100054.00
2018-07-04T05:10:20.179Z,100049.00
2018-07-04T05:13:05.351Z,100049.00
2018-07-04T05:15:50.496Z,100050.00
2018-07-04T05:18:35.694Z,100060.00
2018-07-04T05:21:20.999Z,100064.00
2018-07-04T05:24:06.132Z,100065.00
2018-07-04T05:26:51.323Z,100067.00
2018-07-04T05:29:36.603Z,100078.00
2018-07-04T05:32:22.012Z,100081.00
2018-07-04T05:35:07.334Z,100091.00
2018-07-04T05:37:52.576Z,100091.00
2018-07-04T05:40:38.028Z,100095.00
2018-07-04T05:43:23.339Z,100101.00
2018-07-04T05:46:08.692Z,100102.00
2018-07-04T05:48:53.987Z,100104.00
2018-07-04T05:51:39.289Z,100098.00
2018-07-04T05:54:24.563Z,100102.00
2018-07-04T05:57:09.767Z,100104.00
2018-07-04T05:59:55.208Z,100106.00
2018-07-04T06:02:40.551Z,100105.00
2018-07-04T06:05:25.863Z,100100.00
2018-07-04T06:08:11.144Z,100101.00
2018-07-04T06:10:56.507Z,100096.00
2018-07-04T06:13:41.999Z,100100.00
2018-07-04T06:16:27.184Z,100096.00
2018-07-04T06:19:12.440Z,100093.00
2018-07-04T06:21:57.920Z,100086.00
2018-07-04T06:24:43.113Z,100076.00
2018-07-04T06:27:28.372Z,100066.00
2018-07-04T06:30:13.512Z,100051.00
2018-07-04T06:32:58.687Z,100030.00
2018-07-04T06:35:44.171Z,100019.00
2018-07-04T06:38:10.596Z,100017.00
2018-07-04T06:40:36.987Z,100022.00
2018-07-04T06:43:03.408Z,100022.00
2018-07-04T06:45:29.823Z,99993.00
2018-07-04T06:47:56.183Z,99979.00
2018-07-04T06:50:22.547Z,99997.00
2018-07-04T06:52:48.964Z,100002.00
2018-07-04T06:55:15.327Z,100000.00
2018-07-04T06:57:41.708Z,100017.00
2018-07-04T07:00:08.183Z,100000.00
2018-07-04T07:02:34.576Z,100011.00
2018-07-04T07:05:19.696Z,100015.00
2018-07-04T07:08:04.992Z,100015.00
2018-07-04T07:10:50.224Z,100031.00
2018-07-04T07:13:35.480Z,100014.00
2018-07-04T07:16:20.636Z,100012.00
2018-07-04T07:19:05.796Z,100019.00
2018-07-04T07:21:51.017Z,100044.00
2018-07-04T07:24:36.152Z,100038.00
2018-07-04T07:27:21.280Z,100048.00
2018-07-04T07:30:06.572Z,100045.00
2018-07-04T07:32:51.804Z,100053.00
2018-07-04T07:35:37.175Z,100056.00
2018-07-04T07:38:22.364Z,100012.00
2018-07-04T07:41:07.659Z,100030.00
2018-07-04T07:43:52.999Z,100089.00
2018-07-04T07:46:38.456Z,100099.00
2018-07-04T07:49:23.795Z,100089.00
2018-07-04T07:52:08.916Z,100093.00
2018-07-04T07:54:54.216Z,100095.00
2018-07-04T07:57:39.488Z,100097.00
2018-07-04T08:00:24.688Z,100087.00
2018-07-04T08:03:10.467Z,100085.00
2018-07-04T08:05:55.637Z,100086.00
2018-07-04T08:08:40.764Z,100080.00
2018-07-04T08:11:25.937Z,100076.00
2018-07-04T08:14:11.148Z,100077.00
2018-07-04T08:16:56.479Z,100076.00
2018-07-04T08:19:41.718Z,100081.00
2018-07-04T08:22:26.869Z,100079.00
2018-07-04T08:25:11.964Z,100081.00
2018-07-04T08:27:57.176Z,100081.00
2018-07-04T08:30:42.319Z,100076.00
2018-07-04T08:33:27.500Z,100086.00
2018-07-04T08:36:12.699Z,100074.00
2018-07-04T08:38:58.079Z,100074.00
2018-07-04T08:41:43.271Z,100073.00
2018-07-04T08:44:28.311Z,100075.00
2018-07-04T08:47:13.447Z,100073.00
2018-07-04T08:49:58.636Z,100078.00
2018-07-04T08:52:43.872Z,100066.00
2018-07-04T08:55:29.146Z,100077.00
2018-07-04T08:58:14.426Z,100063.00
2018-07-04T09:00:59.532Z,100066.00
2018-07-04T09:03:44.816Z,100065.00
2018-07-04T09:06:29.892Z,100064.00
2018-07-04T09:09:15.000Z,100069.00
2018-07-04T09:12:00.320Z,100060.00
2018-07-04T09:14:45.522Z,100062.00
2018-07-04T09:17:30.683Z,100055.00
2018-07-04T09:20:15.856Z,100052.00
2018-07-04T09:23:01.185Z,100056.00
2018-07-04T09:25:46.424Z,100056.00
2018-07-04T09:28:31.684Z,100048.00
2018-07-04T09:31:17.057Z,100048.00
2018-07-04T09:34:02.382Z,100055.00
2018-07-04T09:39:48.308Z,100040.00
2018-07-04T09:42:33.629Z,100042.00
2018-07-04T09:45:19.148Z,100043.00
2018-07-04T09:48:04.404Z,100042.00
2018-07-04T09:50:49.456Z,100043.00
2018-07-04T09:53:34.835Z,100041.00
2018-07-04T09:56:20.123Z,100041.00
2018-07-04T09:59:05.272Z,100041.00
2018-07-04T10:01:50.522Z,100043.00
2018-07-04T10:04:35.613Z,100032.00
2018-07-04T10:07:20.792Z,100034.00
2018-07-04T10:10:06.162Z,100026.00
2018-07-04T10:12:51.500Z,100024.00
2018-07-04T10:15:31.043Z,100020.00
2018-07-04T10:18:16.442Z,100015.00
2018-07-04T10:21:01.804Z,100020.00
2018-07-04T10:23:47.083Z,100024.00
2018-07-04T10:26:32.596Z,100016.00
2018-07-04T10:29:18.142Z,100031.00
2018-07-04T10:32:03.455Z,100019.00
2018-07-04T10:34:48.617Z,100018.00
2018-07-04T10:37:33.752Z,100010.00
2018-07-04T10:40:18.980Z,100007.00
2018-07-04T10:43:05.732Z,99999.00
2018-07-04T10:45:53.096Z,100005.00
2018-07-04T10:48:39.344Z,100010.00
2018-07-04T10:51:24.636Z,100011.00
2018-07-04T10:54:10.432Z,100006.00
2018-07-04T10:56:55.652Z,100010.00
2018-07-04T10:59:41.011Z,100001.00
2018-07-04T11:02:30.652Z,99998.00
2018-07-04T11:05:15.811Z,99999.00
2018-07-04T11:08:01.032Z,99998.00
2018-07-04T11:10:46.340Z,99995.00
2018-07-04T11:13:31.760Z,100005.00
2018-07-04T11:16:17.006Z,100004.00
2018-07-04T11:19:02.250Z,100010.00
2018-07-04T11:21:47.424Z,100004.00
2018-07-04T11:24:32.491Z,100001.00
2018-07-04T11:27:17.640Z,99984.00
2018-07-04T11:30:02.791Z,99985.00
2018-07-04T11:32:48.047Z,99992.00
2018-07-04T11:35:33.120Z,99988.00
2018-07-04T11:38:18.416Z,99985.00
2018-07-04T11:41:03.509Z,99977.00
2018-07-04T11:43:48.728Z,99985.00
2018-07-04T11:46:15.140Z,99974.00
2018-07-04T11:48:41.542Z,99980.00
2018-07-04T11:51:07.924Z,99977.00
2018-07-04T11:53:34.345Z,99979.00
2018-07-04T11:56:00.750Z,99981.00
2018-07-04T11:58:27.125Z,99981.00
2018-07-04T12:00:53.588Z,99979.00
2018-07-04T12:03:21.855Z,99978.00
2018-07-04T12:06:07.209Z,99973.00
2018-07-04T12:08:33.648Z,99968.00
2018-07-04T12:11:00.069Z,99958.00
2018-07-04T12:13:27.464Z,99968.00
2018-07-04T12:15:53.887Z,99966.00
2018-07-04T12:18:20.256Z,99965.00
2018-07-04T12:20:46.633Z,99961.00
2018-07-04T12:23:13.569Z,99964.00
2018-07-04T12:25:40.907Z,99959.00
2018-07-04T12:28:07.449Z,99969.00
2018-07-04T12:30:34.016Z,99966.00
2018-07-04T12:33:00.988Z,99954.00
2018-07-04T12:35:27.371Z,99952.00
2018-07-04T12:37:53.780Z,99961.00
2018-07-04T12:40:20.154Z,99961.00
2018-07-04T12:42:46.536Z,99959.00
2018-07-04T12:45:13.001Z,99956.00
2018-07-04T12:47:39.441Z,99955.00
2018-07-04T12:50:24.999Z,99950.00
2018-07-04T12:52:51.607Z,99951.00
2018-07-04T12:55:38.466Z,99940.00
2018-07-04T12:58:23.740Z,99938.00
2018-07-04T13:01:09.076Z,99934.00
2018-07-04T13:03:54.296Z,99943.00
2018-07-04T13:06:39.632Z,99936.00
2018-07-04T13:09:24.902Z,99927.00
2018-07-04T13:12:10.084Z,99929.00
2018-07-04T13:14:55.307Z,99920.00
2018-07-04T13:17:40.535Z,99922.00
2018-07-04T13:20:25.780Z,99918.00
2018-07-04T13:23:10.992Z,99918.00
2018-07-04T13:25:56.334Z,99907.00
2018-07-04T13:28:41.739Z,99903.00
2018-07-04T13:31:27.008Z,99900.00
2018-07-04T13:34:12.219Z,99902.00
2018-07-04T13:36:57.457Z,99904.00
2018-07-04T13:39:42.711Z,99900.00
2018-07-04T13:42:28.054Z,99896.00
2018-07-04T13:45:13.452Z,99892.00
2018-07-04T13:47:58.837Z,99886.00
2018-07-04T13:50:43.985Z,99889.00
2018-07-04T13:53:29.283Z,99894.00
2018-07-04T13:56:14.730Z,99895.00
2018-07-04T13:58:59.968Z,99886.00
2018-07-04T14:01:45.417Z,99872.00
2018-07-04T14:04:30.834Z,99868.00
2018-07-04T14:07:16.120Z,99878.00
2018-07-04T14:10:01.496Z,99873.00
2018-07-04T14:12:46.873Z,99874.00
2018-07-04T14:15:32.245Z,99873.00
2018-07-04T14:18:17.995Z,99869.00
2018-07-04T14:21:03.384Z,99870.00
2018-07-04T14:23:48.728Z,99874.00
2018-07-04T14:26:33.901Z,99869.00
2018-07-04T14:29:19.079Z,99855.00
2018-07-04T14:32:04.306Z,99856.00
2018-07-04T14:34:49.384Z,99853.00
2018-07-04T14:37:34.636Z,99857.00
2018-07-04T14:40:19.816Z,99854.00
2018-07-04T14:43:05.176Z,99847.00
2018-07-04T14:45:50.508Z,99846.00
2018-07-04T14:48:35.747Z,99846.00
2018-07-04T14:51:20.851Z,99835.00
2018-07-04T14:54:06.119Z,99839.00
2018-07-04T14:56:51.318Z,99834.00
2018-07-04T14:59:36.625Z,99833.00
2018-07-04T15:02:23.115Z,99841.00
2018-07-04T15:05:08.447Z,99841.00
2018-07-04T15:07:53.908Z,99836.00
2018-07-04T15:10:39.121Z,99837.00
2018-07-04T15:13:24.585Z,99832.00
2018-07-04T15:16:09.848Z,99817.00
2018-07-04T15:18:55.156Z,99821.00
2018-07-04T15:21:40.364Z,99826.00
2018-07-04T15:24:25.680Z,99809.00
2018-07-04T15:27:10.984Z,99820.00
2018-07-04T15:29:56.413Z,99831.00
2018-07-04T15:32:41.568Z,99826.00
2018-07-04T15:35:26.773Z,99827.00
2018-07-04T15:38:12.092Z,99821.00
2018-07-04T15:40:57.444Z,99820.00
2018-07-04T15:43:42.797Z,99813.00
2018-07-04T15:46:27.997Z,99821.00
2018-07-04T15:49:16.271Z,99828.00
2018-07-04T15:52:01.598Z,99812.00
2018-07-04T15:54:46.900Z,99826.00
2018-07-04T15:57:31.972Z,99822.00
2018-07-04T16:00:16.949Z,99822.00
2018-07-04T16:03:02.233Z,99822.00
2018-07-04T16:05:47.948Z,99826.00
2018-07-04T16:08:33.265Z,99823.00
2018-07-04T16:11:18.435Z,99821.00
2018-07-04T16:14:03.548Z,99811.00
2018-07-04T16:16:49.084Z,99801.00
2018-07-04T16:19:34.308Z,99797.00
2018-07-04T16:22:19.535Z,99803.00
2018-07-04T16:25:04.827Z,99804.00
2018-07-04T16:27:50.199Z,99806.00
2018-07-04T16:30:35.416Z,99808.00
2018-07-04T16:33:14.757Z,99804.00
2018-07-04T16:35:59.974Z,99803.00
2018-07-04T16:38:45.155Z,99801.00
2018-07-04T16:41:30.216Z,99804.00
2018-07-04T16:44:15.462Z,99805.00
2018-07-04T16:47:00.543Z,99798.00
2018-07-04T16:49:45.672Z,99805.00
2018-07-04T16:52:30.836Z,99794.00
2018-07-04T16:55:16.113Z,99798.00
2018-07-04T16:58:01.256Z,99792.00
2018-07-04T17:00:46.625Z,99794.00
2018-07-04T17:03:31.947Z,99789.00
2018-07-04T17:06:17.236Z,99788.00
2018-07-04T17:09:02.517Z,99783.00
2018-07-04T17:11:47.641Z,99790.00
2018-07-04T17:14:32.828Z,99788.00
2018-07-04T17:17:18.156Z,99780.00
2018-07-04T17:20:03.408Z,99781.00
2018-07-04T17:22:48.666Z,99775.00
2018-07-04T17:25:33.833Z,99777.00
2018-07-04T17:28:19.142Z,99779.00
2018-07-04T17:31:04.664Z,99775.00
2018-07-04T17:33:49.996Z,99772.00
2018-07-04T17:36:35.019Z,99776.00
2018-07-04T17:39:20.268Z,99773.00
2018-07-04T17:42:05.542Z,99773.00
2018-07-04T17:44:50.739Z,99773.00
2018-07-04T17:47:36.016Z,99768.00
2018-07-04T17:50:21.348Z,99764.00
2018-07-04T17:53:06.730Z,99765.00
2018-07-04T17:55:51.976Z,99757.00
2018-07-04T17:58:37.160Z,99752.00
2018-07-04T18:01:16.427Z,99754.00
2018-07-04T18:04:01.595Z,99758.00
2018-07-04T18:06:46.836Z,99753.00
2018-07-04T18:09:32.079Z,99751.00
2018-07-04T18:12:17.256Z,99742.00
2018-07-04T18:15:02.302Z,99750.00
2018-07-04T18:17:47.632Z,99753.00
2018-07-04T18:20:32.967Z,99754.00
2018-07-04T18:23:18.319Z,99753.00
2018-07-04T18:26:03.671Z,99751.00
2018-07-04T18:28:48.995Z,99753.00
2018-07-04T18:31:34.241Z,99751.00
2018-07-04T18:34:19.436Z,99751.00
2018-07-04T18:37:04.696Z,99756.00
2018-07-04T18:39:49.741Z,99753.00
2018-07-04T18:42:35.160Z,99750.00
2018-07-04T18:45:20.400Z,99747.00
2018-07-04T18:48:05.634Z,99751.00
2018-07-04T18:50:50.828Z,99746.00
2018-07-04T18:53:36.083Z,99750.00
2018-07-04T18:56:21.260Z,99743.00
2018-07-04T18:59:06.705Z,99745.00
2018-07-04T19:01:52.012Z,99755.00
2018-07-04T19:04:37.268Z,99748.00
2018-07-04T19:07:22.607Z,99748.00
2018-07-04T19:10:07.844Z,99753.00
2018-07-04T19:12:52.995Z,99757.00
2018-07-04T19:15:38.231Z,99761.00
2018-07-04T19:18:23.510Z,99767.00
2018-07-04T19:21:08.716Z,99765.00
2018-07-04T19:23:53.931Z,99765.00
2018-07-04T19:26:39.143Z,99760.00
2018-07-04T19:29:24.558Z,99766.00
2018-07-04T19:32:10.156Z,99764.00
2018-07-04T19:34:55.626Z,99772.00
2018-07-04T19:37:40.791Z,99778.00
2018-07-04T19:40:26.106Z,99775.00
2018-07-04T19:43:11.240Z,99774.00
2018-07-04T19:45:56.384Z,99774.00
2018-07-04T19:48:41.564Z,99773.00
2018-07-04T19:51:26.837Z,99762.00
2018-07-04T19:54:12.265Z,99771.00
2018-07-04T19:56:57.411Z,99765.00
2018-07-04T19:59:42.648Z,99760.00
2018-07-04T20:02:27.919Z,99758.00
2018-07-04T20:05:13.079Z,99758.00
2018-07-04T20:07:58.351Z,99760.00
2018-07-04T20:10:43.519Z,99762.00
2018-07-04T20:13:28.760Z,99758.00
2018-07-04T20:16:13.985Z,99757.00
2018-07-04T20:18:59.112Z,99758.00
2018-07-04T20:21:44.484Z,99757.00
2018-07-04T20:24:29.851Z,99758.00
2018-07-04T20:27:15.064Z,99753.00
2018-07-04T20:30:00.373Z,99755.00
2018-07-04T20:32:45.431Z,99769.00
2018-07-04T20:35:30.448Z,99769.00
2018-07-04T20:38:15.611Z,99763.00
2018-07-04T20:41:00.763Z,99761.00
2018-07-04T20:43:46.144Z,99758.00
2018-07-04T20:46:31.520Z,99760.00
2018-07-04T20:49:17.153Z,99765.00
2018-07-04T20:52:02.520Z,99754.00
2018-07-04T20:54:47.576Z,99758.00
2018-07-04T20:57:32.797Z,99761.00
2018-07-04T21:00:17.931Z,99763.00
2018-07-04T21:03:03.189Z,99765.00
2018-07-04T21:05:48.335Z,99768.00
2018-07-04T21:08:33.464Z,99777.00
2018-07-04T21:11:18.664Z,99768.00
2018-07-04T21:14:03.967Z,99771.00
2018-07-04T21:16:48.998Z,99772.00
2018-07-04T21:19:34.188Z,99780.00
2018-07-04T21:22:13.547Z,99780.00
2018-07-04T21:24:58.732Z,99781.00
2018-07-04T21:27:43.940Z,99787.00
2018-07-04T21:30:29.119Z,99789.00
2018-07-04T21:33:14.360Z,99787.00
2018-07-04T21:36:01.567Z,99785.00
2018-07-04T21:38:50.020Z,99778.00
2018-07-04T21:41:40.868Z,99774.00
2018-07-04T21:44:26.204Z,99775.00
2018-07-04T21:47:11.419Z,99768.00
2018-07-04T21:49:56.568Z,99770.00
2018-07-04T21:52:41.687Z,99771.00
2018-07-04T21:55:27.888Z,99765.00
2018-07-04T21:58:18.984Z,99762.00
2018-07-04T22:01:09.251Z,99772.00
2018-07-04T22:03:56.514Z,99773.00
2018-07-04T22:06:41.724Z,99772.00
2018-07-04T22:09:26.804Z,99767.00
2018-07-04T22:12:16.641Z,99764.00
2018-07-04T22:15:01.933Z,99759.00
2018-07-04T22:17:47.053Z,99762.00
2018-07-04T22:20:32.143Z,99765.00
2018-07-04T22:23:17.409Z,99761.00
2018-07-04T22:26:02.681Z,99763.00
2018-07-04T22:28:48.080Z,99755.00
2018-07-04T22:31:33.341Z,99765.00
2018-07-04T22:34:18.639Z,99758.00
2018-07-04T22:37:03.956Z,99767.00
2018-07-04T22:39:49.184Z,99767.00
2018-07-04T22:42:34.340Z,99770.00
2018-07-04T22:45:19.466Z,99767.00
2018-07-04T22:48:04.957Z,99762.00
2018-07-04T22:50:50.256Z,99750.00
2018-07-04T22:53:35.584Z,99749.00
2018-07-04T22:56:20.776Z,99757.00
2018-07-04T22:59:05.906Z,99758.00
2018-07-04T23:01:51.129Z,99761.00
2018-07-04T23:04:36.539Z,99749.00
2018-07-04T23:07:21.816Z,99743.00
2018-07-04T23:10:06.884Z,99755.00
2018-07-04T23:12:52.167Z,99756.00
2018-07-04T23:15:37.437Z,99764.00
2018-07-04T23:18:22.644Z,99753.00
2018-07-04T23:21:08.081Z,99758.00
2018-07-04T23:23:53.444Z,99749.00
2018-07-04T23:26:38.607Z,99763.00
2018-07-04T23:29:23.698Z,99759.00
2018-07-04T23:32:08.943Z,99753.00
2018-07-04T23:34:54.032Z,99758.00
2018-07-04T23:37:39.247Z,99769.00
2018-07-04T23:40:24.468Z,99756.00
2018-07-04T23:43:09.719Z,99751.00
2018-07-04T23:45:54.859Z,99745.00
2018-07-04T23:48:40.015Z,99735.00
2018-07-04T23:51:25.040Z,99741.00
2018-07-04T23:54:10.173Z,99743.00
2018-07-04T23:56:55.305Z,99747.00
2018-07-04T23:59:41.340Z,99747.00
